Time;durP1;ratioP1;P1;durP2;ratioP2;P2;SDS_P1;SDS_P2;PMS_P1;PMS_P2;Temp;Humidity;BMP_temperature;BMP_pressure;BME280_temperature;BME280_humidity;BME280_pressure;Samples;Min_cycle;Max_cycle;Signal;HPM_P1;HPM_P2
2022/03/18 00:00:34;;;;;;;28.48;19.25;;;;;;;10.00;86.62;96624.75;6300207;22;20003;-64
2022/03/18 00:02:59;;;;;;;25.80;19.13;;;;;;;10.10;86.38;96626.69;6273587;22;20400;-65
2022/03/18 00:05:25;;;;;;;24.60;17.90;;;;;;;10.11;85.78;96623.13;6300826;22;20003;-65
2022/03/18 00:07:52;;;;;;;22.60;17.42;;;;;;;10.09;85.65;96617.13;6300756;22;20004;-65
2022/03/18 00:10:18;;;;;;;20.80;17.80;;;;;;;10.06;85.95;96617.34;6300658;22;20136;-64
2022/03/18 00:12:45;;;;;;;29.15;19.67;;;;;;;10.02;86.30;96614.94;6300629;22;20020;-65
2022/03/18 00:15:13;;;;;;;27.58;18.42;;;;;;;10.00;86.38;96614.22;6300573;22;20037;-64
2022/03/18 00:17:39;;;;;;;23.15;18.88;;;;;;;9.97;86.57;96614.47;6300576;22;20013;-64
2022/03/18 00:20:07;;;;;;;23.00;19.10;;;;;;;9.95;86.47;96616.38;6300824;22;20391;-64
2022/03/18 00:22:33;;;;;;;26.35;20.00;;;;;;;10.00;86.00;96613.41;6300587;22;20003;-64
2022/03/18 00:24:59;;;;;;;24.30;19.13;;;;;;;10.00;85.69;96611.59;6300653;22;20455;-64
2022/03/18 00:27:26;;;;;;;26.80;20.45;;;;;;;10.02;85.45;96603.59;6300494;22;20011;-64
2022/03/18 00:29:52;;;;;;;26.13;19.42;;;;;;;10.12;84.84;96611.63;6273880;22;20436;-64
2022/03/18 00:32:17;;;;;;;33.38;20.58;;;;;;;10.16;84.49;96616.53;6300573;22;20003;-64
2022/03/18 00:34:43;;;;;;;35.88;21.20;;;;;;;10.19;84.43;96618.09;6300864;22;20342;-64
2022/03/18 00:37:09;;;;;;;25.75;19.70;;;;;;;10.11;84.61;96617.84;6300649;22;20002;-64
2022/03/18 00:39:34;;;;;;;23.52;20.20;;;;;;;10.11;84.70;96618.69;6300644;22;20003;-64
2022/03/18 00:42:00;;;;;;;24.25;21.45;;;;;;;10.19;84.51;96615.47;6300715;22;20037;-64
2022/03/18 00:44:25;;;;;;;28.77;21.92;;;;;;;10.08;84.54;96612.81;6300699;22;20078;-64
2022/03/18 00:46:52;;;;;;;24.63;20.40;;;;;;;10.07;84.54;96614.59;6300521;22;20007;-64
2022/03/18 00:52:06;;;;;;;22.45;19.50;;;;;;;10.02;85.04;96612.31;6300558;22;20019;-64
2022/03/18 00:54:43;;;;;;;30.65;20.55;;;;;;;10.06;84.68;96614.72;6300635;22;20008;-64
2022/03/18 00:57:09;;;;;;;25.70;21.10;;;;;;;10.06;84.77;96604.19;6300635;22;20011;-64
2022/03/18 00:59:35;;;;;;;27.50;21.30;;;;;;;10.16;84.13;96605.19;6300652;22;20010;-64
2022/03/18 01:02:01;;;;;;;30.85;21.05;;;;;;;10.07;84.48;96598.81;6300464;22;20007;-64
2022/03/18 01:04:30;;;;;;;30.67;21.55;;;;;;;10.04;84.56;96604.31;6300480;22;20003;-64
2022/03/18 01:06:58;;;;;;;28.95;22.55;;;;;;;10.07;84.76;96598.81;6300684;22;20431;-64
2022/03/18 01:09:24;;;;;;;23.63;20.73;;;;;;;10.06;84.53;96601.56;6300497;22;20014;-64
2022/03/18 01:11:52;;;;;;;27.50;21.63;;;;;;;10.04;85.05;96596.44;6272644;22;20023;-64
2022/03/18 01:14:19;;;;;;;26.83;22.27;;;;;;;10.08;84.49;96592.59;6300213;22;20010;-64
2022/03/18 01:16:44;;;;;;;30.67;20.92;;;;;;;10.05;84.82;96592.84;6300644;22;20135;-64
2022/03/18 01:19:10;;;;;;;28.95;21.60;;;;;;;10.02;84.87;96593.06;6300625;22;20078;-64
2022/03/18 01:21:36;;;;;;;30.27;22.35;;;;;;;9.95;85.20;96584.81;6273375;22;20588;-64
2022/03/18 01:24:01;;;;;;;26.88;21.70;;;;;;;9.98;85.07;96589.81;6300469;22;20007;-64
2022/03/18 01:26:27;;;;;;;36.45;21.95;;;;;;;10.14;84.82;96586.03;6300680;22;19999;-64
2022/03/18 01:28:53;;;;;;;31.23;23.77;;;;;;;9.96;85.10;96599.63;6300510;22;20038;-63
2022/03/18 01:31:19;;;;;;;30.50;23.90;;;;;;;9.97;85.18;96592.59;6300064;22;20007;-64
2022/03/18 01:33:45;;;;;;;29.33;23.63;;;;;;;9.97;84.65;96589.97;6300556;22;20070;-64
2022/03/18 01:36:11;;;;;;;29.15;24.08;;;;;;;10.16;83.53;96587.56;6300323;22;19999;-64
2022/03/18 01:38:37;;;;;;;33.80;24.60;;;;;;;10.34;83.02;96587.13;6300125;22;20442;-64
2022/03/18 01:41:02;;;;;;;30.15;25.15;;;;;;;10.25;82.93;96590.47;6300422;22;20004;-64
2022/03/18 01:43:27;;;;;;;31.08;25.48;;;;;;;10.15;83.40;96585.91;6300318;22;20343;-64
2022/03/18 01:45:53;;;;;;;30.50;25.40;;;;;;;10.20;83.55;96588.19;6300830;22;20003;-64
2022/03/18 01:48:18;;;;;;;33.53;26.10;;;;;;;10.30;82.66;96586.53;6300287;22;20003;-64
2022/03/18 01:50:44;;;;;;;30.77;25.83;;;;;;;10.25;83.37;96591.31;6300390;22;20078;-64
2022/03/18 01:53:11;;;;;;;29.10;24.15;;;;;;;10.37;82.76;96583.44;6300234;22;20027;-64
2022/03/18 01:55:37;;;;;;;33.10;26.30;;;;;;;10.14;83.32;96578.97;6273367;22;20011;-64
2022/03/18 01:58:04;;;;;;;31.55;26.67;;;;;;;10.17;83.50;96583.16;6300234;22;20007;-64
2022/03/18 02:00:29;;;;;;;29.50;26.13;;;;;;;10.07;83.53;96584.84;6300661;22;20035;-64
2022/03/18 02:02:55;;;;;;;40.03;28.70;;;;;;;10.25;82.85;96579.94;6300119;22;20436;-64
2022/03/18 02:05:20;;;;;;;35.22;28.15;;;;;;;10.18;82.97;96584.84;6300045;22;20431;-64
2022/03/18 02:07:46;;;;;;;35.58;27.63;;;;;;;10.23;82.57;96581.88;6300354;22;20082;-64
2022/03/18 02:10:12;;;;;;;33.25;26.85;;;;;;;10.24;82.73;96583.53;6299569;22;20004;-64
2022/03/18 02:12:39;;;;;;;33.05;26.13;;;;;;;10.07;83.37;96577.78;6299820;22;20050;-64
2022/03/18 02:15:06;;;;;;;33.05;28.23;;;;;;;10.11;83.18;96579.19;6300434;22;20555;-64
2022/03/18 02:17:31;;;;;;;38.83;27.48;;;;;;;10.14;82.82;96586.84;6300187;22;19999;-64
2022/03/18 02:19:57;;;;;;;34.10;30.40;;;;;;;10.04;83.64;96583.28;6299868;22;20004;-64
2022/03/18 02:22:25;;;;;;;38.88;29.85;;;;;;;10.13;82.42;96576.47;6300168;22;20032;-64
2022/03/18 02:24:52;;;;;;;32.40;27.35;;;;;;;10.20;82.70;96574.22;6300728;22;20007;-64
2022/03/18 02:27:19;;;;;;;43.45;29.08;;;;;;;10.07;82.96;96575.13;6300874;22;20313;-64
2022/03/18 02:29:45;;;;;;;37.33;27.42;;;;;;;10.02;83.18;96575.47;6301230;22;20003;-64
2022/03/18 02:32:13;;;;;;;38.63;29.10;;;;;;;9.94;83.52;96569.97;6301011;22;20082;-64
2022/03/18 02:34:39;;;;;;;33.67;28.50;;;;;;;9.95;83.40;96576.91;6301197;22;20038;-64
2022/03/18 02:37:05;;;;;;;34.67;28.75;;;;;;;9.86;83.52;96573.19;6301137;22;19996;-64
2022/03/18 02:39:31;;;;;;;33.65;28.15;;;;;;;9.73;84.27;96578.53;6301316;22;20465;-64
2022/03/18 02:41:57;;;;;;;34.08;29.23;;;;;;;9.71;84.42;96572.53;6301307;22;19999;-64
2022/03/18 02:44:23;;;;;;;40.42;29.98;;;;;;;9.92;83.58;96579.78;6301094;22;20002;-64
2022/03/18 02:46:49;;;;;;;40.40;29.38;;;;;;;9.88;83.72;96583.59;6301321;22;20003;-64
2022/03/18 02:49:15;;;;;;;38.85;30.48;;;;;;;9.96;83.03;96583.03;6301176;22;20435;-64
2022/03/18 02:51:41;;;;;;;41.45;30.00;;;;;;;9.82;83.63;96581.41;6301251;22;20018;-64
2022/03/18 02:54:08;;;;;;;38.47;30.17;;;;;;;9.84;83.66;96590.06;6300970;22;20008;-64
2022/03/18 02:56:34;;;;;;;35.20;29.98;;;;;;;9.78;84.56;96583.44;6301207;22;19999;-64
2022/03/18 02:59:01;;;;;;;36.20;29.42;;;;;;;9.64;84.61;96591.53;6301044;22;20061;-65
2022/03/18 03:01:30;;;;;;;40.60;30.98;;;;;;;9.75;84.05;96588.94;6273891;22;20479;-64
2022/03/18 03:03:57;;;;;;;41.30;31.38;;;;;;;9.85;83.72;96581.19;6301160;22;20014;-64
2022/03/18 03:09:06;;;;;;;36.45;28.33;;;;;;;9.59;85.13;96587.44;6301033;22;20132;-64
2022/03/18 03:11:31;;;;;;;38.05;30.13;;;;;;;9.52;85.64;96586.22;6300750;22;20459;-64
2022/03/18 03:13:57;;;;;;;34.22;29.17;;;;;;;9.72;84.78;96586.53;6301085;22;20019;-64
2022/03/18 03:16:23;;;;;;;32.78;28.98;;;;;;;9.58;85.21;96591.03;6301100;22;20078;-64
2022/03/18 03:18:48;;;;;;;34.55;29.52;;;;;;;9.64;85.07;96591.53;6300579;22;20074;-64
2022/03/18 03:21:15;;;;;;;37.92;30.17;;;;;;;9.60;85.03;96590.91;6300888;22;20000;-64
2022/03/18 03:23:41;;;;;;;42.90;31.60;;;;;;;9.55;85.13;96593.03;6301076;22;20442;-64
2022/03/18 03:26:06;;;;;;;35.90;28.75;;;;;;;9.64;84.68;96600.25;6300981;22;20013;-64
2022/03/18 03:28:32;;;;;;;41.58;31.38;;;;;;;9.67;84.15;96597.41;6273699;22;20039;-64
2022/03/18 03:30:57;;;;;;;46.63;32.92;;;;;;;9.55;84.60;96593.88;6301037;22;20027;-64
2022/03/18 03:33:24;;;;;;;35.60;29.67;;;;;;;9.41;85.29;96600.16;6301086;22;20015;-64
2022/03/18 03:35:50;;;;;;;37.55;32.15;;;;;;;9.49;84.98;96604.00;6300842;22;20072;-65
2022/03/18 03:38:15;;;;;;;40.38;32.28;;;;;;;9.63;84.36;96603.00;6300996;22;20009;-65
2022/03/18 03:40:43;;;;;;;41.70;32.40;;;;;;;9.66;84.31;96600.97;6300919;22;20000;-64
2022/03/18 03:43:09;;;;;;;39.65;32.78;;;;;;;9.60;84.24;96606.66;6300452;22;20085;-64
2022/03/18 03:45:38;;;;;;;41.72;32.55;;;;;;;9.54;84.53;96599.25;6300879;22;20446;-64
2022/03/18 03:48:05;;;;;;;42.85;32.33;;;;;;;9.50;84.81;96609.13;6300903;22;20454;-64
2022/03/18 03:50:32;;;;;;;40.00;32.47;;;;;;;9.42;84.43;96607.09;6301020;22;20007;-65
2022/03/18 03:52:57;;;;;;;37.83;32.63;;;;;;;9.34;84.77;96612.06;6300769;22;20003;-64
2022/03/18 03:55:23;;;;;;;45.55;33.30;;;;;;;9.56;83.89;96611.34;6273554;22;20007;-64
2022/03/18 03:57:48;;;;;;;49.28;32.90;;;;;;;9.39;85.07;96609.94;6300800;22;20031;-64
2022/03/18 04:00:15;;;;;;;43.00;33.03;;;;;;;9.50;84.11;96613.56;6300808;22;20003;-64
2022/03/18 04:02:43;;;;;;;37.72;31.42;;;;;;;9.45;84.25;96619.16;6300573;22;20212;-64
2022/03/18 04:05:09;;;;;;;49.05;33.08;;;;;;;9.60;84.01;96620.69;6300852;22;20503;-64
2022/03/18 04:07:39;;;;;;;51.75;35.80;;;;;;;9.43;84.02;96621.06;6300594;22;20003;-64
2022/03/18 04:10:06;;;;;;;50.72;33.47;;;;;;;9.38;84.44;96624.03;6300692;22;20000;-64
2022/03/18 04:12:34;;;;;;;46.13;33.47;;;;;;;9.45;84.56;96620.00;6300525;22;20028;-64
2022/03/18 04:15:00;;;;;;;42.97;34.47;;;;;;;9.42;83.84;96620.25;6300761;22;20090;-64
2022/03/18 04:17:28;;;;;;;42.10;36.20;;;;;;;9.42;83.89;96625.50;6300841;22;19999;-65
2022/03/18 04:19:54;;;;;;;45.10;33.95;;;;;;;9.47;83.62;96622.50;6300541;22;20006;-64
2022/03/18 04:22:20;;;;;;;46.92;36.30;;;;;;;9.41;83.83;96620.34;6300656;22;20007;-64
2022/03/18 04:24:46;;;;;;;43.88;34.10;;;;;;;9.28;84.08;96629.13;6300767;22;20038;-65
2022/03/18 04:27:11;;;;;;;41.13;35.42;;;;;;;9.27;84.26;96631.84;6300652;22;19999;-64
2022/03/18 04:29:37;;;;;;;62.38;35.92;;;;;;;9.49;83.28;96630.28;6300957;22;20004;-64
2022/03/18 04:32:02;;;;;;;45.88;34.58;;;;;;;9.31;83.78;96641.19;6300373;22;20011;-64
2022/03/18 04:34:28;;;;;;;43.50;34.70;;;;;;;9.20;84.17;96630.63;6300607;22;20038;-65
2022/03/18 04:36:53;;;;;;;49.47;33.97;;;;;;;9.23;84.47;96638.28;6300630;22;20102;-65
2022/03/18 04:39:18;;;;;;;47.88;33.75;;;;;;;9.26;84.32;96640.69;6300445;22;20007;-64
2022/03/18 04:41:44;;;;;;;45.92;35.03;;;;;;;9.26;84.33;96630.19;6300698;22;20340;-65
2022/03/18 04:44:09;;;;;;;50.30;35.45;;;;;;;9.38;83.39;96629.28;6300376;22;20070;-65
2022/03/18 04:46:34;;;;;;;52.42;36.38;;;;;;;9.25;84.13;96642.47;6300193;22;19999;-64
2022/03/18 04:49:00;;;;;;;45.88;37.33;;;;;;;9.14;84.98;96639.78;6300410;22;20007;-64
2022/03/18 04:51:26;;;;;;;44.85;35.90;;;;;;;9.04;85.68;96642.22;6273094;22;20012;-64
2022/03/18 04:53:52;;;;;;;48.72;37.13;;;;;;;9.04;85.54;96639.59;6273462;22;20035;-65
2022/03/18 04:59:01;;;;;;;45.63;37.72;;;;;;;8.97;85.06;96647.06;6300126;22;20018;-64
2022/03/18 05:01:27;;;;;;;50.17;38.53;;;;;;;8.86;85.63;96642.56;6300628;22;19999;-64
2022/03/18 05:03:52;;;;;;;49.50;37.53;;;;;;;8.79;85.33;96643.97;6300454;22;20014;-64
2022/03/18 05:06:18;;;;;;;50.20;38.22;;;;;;;8.76;85.58;96646.81;6300622;22;20395;-64
2022/03/18 05:08:44;;;;;;;50.67;37.97;;;;;;;8.70;85.80;96642.81;6300494;22;20354;-64
2022/03/18 05:11:10;;;;;;;53.85;39.75;;;;;;;8.74;85.76;96652.16;6299959;22;20011;-64
2022/03/18 05:13:35;;;;;;;54.50;38.85;;;;;;;8.77;85.50;96650.25;6300700;22;20007;-64
2022/03/18 05:16:01;;;;;;;53.55;38.10;;;;;;;8.71;85.57;96646.25;6300366;22;20007;-64
2022/03/18 05:18:26;;;;;;;53.60;39.00;;;;;;;8.62;85.86;96660.91;6300096;22;20011;-64
2022/03/18 05:20:52;;;;;;;48.92;38.85;;;;;;;8.70;85.74;96655.09;6300297;22;20007;-64
2022/03/18 05:23:17;;;;;;;61.17;39.08;;;;;;;8.65;86.22;96662.44;6300199;22;20007;-64
2022/03/18 05:25:43;;;;;;;55.15;42.22;;;;;;;8.65;86.63;96663.31;6300519;22;19999;-64
2022/03/18 05:28:08;;;;;;;52.53;40.60;;;;;;;8.58;86.60;96659.41;6300232;22;20011;-65
2022/03/18 05:30:34;;;;;;;51.08;40.65;;;;;;;8.60;86.60;96662.75;6300458;22;20031;-64
2022/03/18 05:33:00;;;;;;;55.15;39.78;;;;;;;8.60;86.02;96668.00;6300251;22;20376;-64
2022/03/18 05:35:25;;;;;;;56.58;39.85;;;;;;;8.67;85.71;96671.91;6299970;22;20051;-65
2022/03/18 05:37:51;;;;;;;53.10;39.13;;;;;;;8.58;86.16;96673.38;6300188;22;20620;-66
2022/03/18 05:40:18;;;;;;;51.78;39.20;;;;;;;8.58;86.00;96665.50;6300007;22;20347;-66
2022/03/18 05:42:44;;;;;;;55.10;40.85;;;;;;;8.61;85.64;96674.94;6300366;22;20004;-65
2022/03/18 05:45:09;;;;;;;53.60;40.03;;;;;;;8.55;85.64;96681.47;6300113;22;20060;-64
2022/03/18 05:47:35;;;;;;;58.03;41.88;;;;;;;8.56;85.81;96677.03;6299834;22;20007;-64
2022/03/18 05:50:05;;;;;;;57.30;41.13;;;;;;;8.54;85.69;96692.06;6300136;22;20015;-66
2022/03/18 05:52:34;;;;;;;53.20;41.00;;;;;;;8.52;86.07;96693.94;6299998;22;20003;-66
2022/03/18 05:55:00;;;;;;;53.50;40.08;;;;;;;8.54;85.99;96690.28;6300208;22;20003;-65
2022/03/18 05:57:27;;;;;;;54.22;40.42;;;;;;;8.52;85.67;96694.81;6300134;22;20677;-66
2022/03/18 05:59:56;;;;;;;52.55;42.03;;;;;;;8.56;85.63;96695.41;6300021;22;20438;-66
2022/03/18 06:02:22;;;;;;;50.40;40.30;;;;;;;8.53;85.98;96696.47;6299702;22;20029;-66
2022/03/18 06:04:48;;;;;;;58.88;42.38;;;;;;;8.52;85.63;96702.69;6300009;22;19999;-67
2022/03/18 06:07:14;;;;;;;61.92;39.67;;;;;;;8.54;85.48;96698.16;6300077;22;19996;-56
2022/03/18 06:12:24;;;;;;;56.90;41.65;;;;;;;8.53;85.15;96701.72;6299510;22;20110;-56
2022/03/18 06:14:49;;;;;;;64.28;41.28;;;;;;;8.53;85.19;96703.50;6299738;22;20045;-57
2022/03/18 06:17:15;;;;;;;61.08;42.10;;;;;;;8.53;85.29;96709.59;6272515;22;20012;-54
2022/03/18 06:19:40;;;;;;;59.35;41.00;;;;;;;8.48;85.29;96705.56;6299854;22;20011;-51
2022/03/18 06:22:08;;;;;;;57.22;42.83;;;;;;;8.43;85.47;96711.97;6299933;22;20458;-55
2022/03/18 06:24:34;;;;;;;55.40;40.55;;;;;;;8.49;85.12;96710.69;6299865;22;20568;-51
2022/03/18 06:27:00;;;;;;;51.60;40.35;;;;;;;8.51;85.00;96716.75;6299045;22;20003;-51
2022/03/18 06:29:27;;;;;;;56.15;41.65;;;;;;;8.54;85.04;96719.16;6299562;22;20013;-52
2022/03/18 06:31:53;;;;;;;64.93;40.40;;;;;;;8.44;85.37;96713.66;6299842;22;20014;-50
2022/03/18 06:34:20;;;;;;;54.30;42.28;;;;;;;8.48;85.02;96713.44;6299168;22;20078;-52
2022/03/18 06:36:46;;;;;;;55.03;43.70;;;;;;;8.45;84.99;96715.34;6299303;22;20008;-53
2022/03/18 06:39:11;;;;;;;56.53;42.85;;;;;;;8.43;84.92;96727.72;6299662;22;20463;-53
2022/03/18 06:41:37;;;;;;;61.88;43.45;;;;;;;8.45;84.89;96714.47;6298243;22;20587;-53
2022/03/18 06:44:03;;;;;;;57.63;42.63;;;;;;;8.43;85.02;96719.00;6272485;22;20014;-52
2022/03/18 06:46:28;;;;;;;59.88;45.20;;;;;;;8.37;85.18;96715.00;6297937;22;20078;-52
2022/03/18 06:48:54;;;;;;;62.70;44.50;;;;;;;8.37;85.31;96716.78;6299394;22;20102;-52
2022/03/18 06:51:19;;;;;;;58.10;42.40;;;;;;;8.63;83.96;96716.84;6298993;22;20510;-53
2022/03/18 06:53:45;;;;;;;55.22;43.15;;;;;;;8.44;84.27;96725.94;6299412;22;20011;-49
2022/03/18 06:56:12;;;;;;;59.47;40.03;;;;;;;8.50;84.57;96729.97;6299555;22;20011;-54
2022/03/18 06:58:38;;;;;;;57.70;42.30;;;;;;;8.43;85.00;96732.13;6299949;22;20010;-52
2022/03/18 07:01:04;;;;;;;56.50;42.47;;;;;;;8.42;84.71;96731.28;6272403;22;20004;-51
2022/03/18 07:03:29;;;;;;;53.97;44.00;;;;;;;8.36;84.98;96731.69;6299668;22;20046;-52
2022/03/18 07:05:55;;;;;;;61.15;43.33;;;;;;;8.43;84.45;96729.50;6299435;22;20343;-50
2022/03/18 07:08:20;;;;;;;55.58;41.90;;;;;;;8.38;84.50;96731.59;6299601;22;20031;-53
2022/03/18 07:10:45;;;;;;;63.20;45.38;;;;;;;8.35;84.88;96731.81;6300263;22;20011;-54
2022/03/18 07:13:11;;;;;;;56.38;41.47;;;;;;;8.35;84.54;96731.81;6300902;22;20391;-52
2022/03/18 07:15:36;;;;;;;51.75;39.38;;;;;;;8.38;84.56;96723.72;6301030;22;20066;-54
2022/03/18 07:18:03;;;;;;;53.33;40.83;;;;;;;8.45;84.33;96730.22;6301030;22;20427;-53
2022/03/18 07:20:34;;;;;;;57.28;40.67;;;;;;;8.35;84.43;96724.75;6300858;22;20010;-52
2022/03/18 07:23:09;;;;;;;49.25;39.83;;;;;;;8.33;84.44;96726.66;6301092;22;20597;-50
2022/03/18 07:25:36;;;;;;;50.03;39.45;;;;;;;8.35;84.33;96730.00;6301001;22;20055;-53
2022/03/18 07:28:04;;;;;;;52.25;41.53;;;;;;;8.34;84.28;96730.13;6301036;22;20003;-53
2022/03/18 07:30:30;;;;;;;56.25;39.83;;;;;;;8.36;84.73;96726.44;6300931;22;20086;-55
2022/03/18 07:32:55;;;;;;;55.38;42.33;;;;;;;8.28;84.83;96732.19;6300793;22;20038;-55
2022/03/18 07:35:21;;;;;;;52.05;40.28;;;;;;;8.36;84.52;96734.31;6300946;22;20007;-54
2022/03/18 07:37:48;;;;;;;53.63;40.47;;;;;;;8.39;84.32;96743.78;6300958;22;20010;-52
2022/03/18 07:40:14;;;;;;;58.22;39.97;;;;;;;8.42;84.18;96736.53;6301083;22;20003;-52
2022/03/18 07:42:43;;;;;;;53.28;40.22;;;;;;;8.32;84.76;96746.81;6300847;22;20006;-52
2022/03/18 07:45:11;;;;;;;52.10;39.47;;;;;;;8.44;84.86;96746.91;6300919;22;20006;-52
2022/03/18 07:47:37;;;;;;;63.42;42.80;;;;;;;8.40;84.70;96755.94;6301320;22;20034;-54
2022/03/18 07:50:02;;;;;;;54.15;40.33;;;;;;;8.36;84.61;96752.69;6301302;22;20000;-50
2022/03/18 07:52:27;;;;;;;46.15;38.35;;;;;;;8.36;84.72;96757.09;6300578;22;20450;-54
2022/03/18 07:54:53;;;;;;;56.63;39.25;;;;;;;8.42;85.13;96757.53;6300817;22;19999;-52
2022/03/18 07:57:18;;;;;;;56.20;39.33;;;;;;;8.49;84.65;96762.38;6301133;22;20003;-53
2022/03/18 07:59:43;;;;;;;49.15;38.42;;;;;;;8.52;84.51;96762.19;6300750;22;20124;-53
2022/03/18 08:02:09;;;;;;;48.00;39.15;;;;;;;8.44;84.32;96760.91;6301031;22;20000;-53
2022/03/18 08:04:34;;;;;;;48.22;39.78;;;;;;;8.35;84.90;96766.75;6301169;22;20438;-54
2022/03/18 08:07:03;;;;;;;51.88;40.38;;;;;;;8.34;84.92;96764.22;6300899;22;20011;-51
2022/03/18 08:09:29;;;;;;;48.90;38.20;;;;;;;8.46;84.46;96766.03;6300753;22;20387;-53
2022/03/18 08:11:55;;;;;;;46.83;38.28;;;;;;;8.49;84.33;96768.44;6300466;22;20019;-52
2022/03/18 08:14:21;;;;;;;49.03;37.53;;;;;;;8.58;84.06;96777.53;6301229;22;20003;-52
2022/03/18 08:16:46;;;;;;;51.03;38.40;;;;;;;8.39;84.28;96776.09;6300942;22;20389;-53
2022/03/18 08:19:12;;;;;;;52.42;39.17;;;;;;;8.34;85.24;96788.69;6300591;22;20046;-49
2022/03/18 08:21:38;;;;;;;58.67;38.97;;;;;;;8.44;84.84;96788.91;6299988;22;20348;-51
2022/03/18 08:24:04;;;;;;;51.42;38.00;;;;;;;8.29;85.42;96788.16;6300880;22;20063;-51
2022/03/18 08:26:29;;;;;;;48.83;37.28;;;;;;;8.20;86.51;96786.97;6300656;22;20011;-53
2022/03/18 08:28:55;;;;;;;50.90;38.20;;;;;;;8.26;86.19;96786.56;6300801;22;20347;-51
2022/03/18 08:31:20;;;;;;;49.70;39.20;;;;;;;8.16;86.20;96798.59;6300610;22;20007;-53
2022/03/18 08:33:45;;;;;;;51.35;39.70;;;;;;;8.15;85.83;96796.91;6300856;22;20006;-51
2022/03/18 08:36:11;;;;;;;51.20;38.70;;;;;;;8.22;85.37;96787.69;6300666;22;20090;-52
2022/03/18 08:38:36;;;;;;;44.80;37.30;;;;;;;8.35;84.29;96797.41;6300781;22;20014;-53
2022/03/18 08:41:02;;;;;;;56.20;40.78;;;;;;;8.25;84.40;96798.00;6300736;22;20026;-52
2022/03/18 08:43:27;;;;;;;47.33;36.55;;;;;;;8.21;84.38;96788.63;6300722;22;19999;-53
2022/03/18 08:45:52;;;;;;;50.28;37.08;;;;;;;8.30;83.98;96795.06;6300594;22;20004;-53
2022/03/18 08:48:18;;;;;;;43.28;35.80;;;;;;;8.34;83.94;96800.97;6300567;22;20074;-51
2022/03/18 08:50:43;;;;;;;50.25;35.80;;;;;;;8.39;83.71;96798.88;6300652;22;20434;-51
2022/03/18 08:53:11;;;;;;;50.65;36.00;;;;;;;8.36;83.76;96804.34;6300514;22;20013;-50
2022/03/18 08:55:39;;;;;;;54.90;39.00;;;;;;;8.37;83.90;96811.25;6273508;22;20015;-51
2022/03/18 08:58:05;;;;;;;58.00;37.10;;;;;;;8.44;83.98;96808.13;6300722;22;20434;-52
2022/03/18 09:00:30;;;;;;;47.20;35.53;;;;;;;8.39;84.13;96812.81;6300408;22;20010;-48
2022/03/18 09:02:56;;;;;;;48.70;37.30;;;;;;;8.32;84.84;96812.41;6300882;22;20008;-51
2022/03/18 09:05:21;;;;;;;45.67;36.90;;;;;;;8.27;84.82;96814.47;6300564;22;20007;-52
2022/03/18 09:07:47;;;;;;;52.00;37.60;;;;;;;8.38;85.08;96819.00;6301011;22;20018;-54
2022/03/18 09:10:13;;;;;;;48.28;37.35;;;;;;;8.35;84.82;96813.16;6300369;22;20003;-52
2022/03/18 09:12:50;;;;;;;49.40;39.45;;;;;;;8.46;84.58;96821.13;6300336;22;20346;-53
2022/03/18 09:15:18;;;;;;;48.42;37.75;;;;;;;8.46;84.19;96818.50;6300480;22;20031;-49
2022/03/18 09:17:44;;;;;;;44.17;35.78;;;;;;;8.50;83.55;96827.91;6300633;22;20070;-52
2022/03/18 09:20:10;;;;;;;50.53;36.50;;;;;;;8.49;83.40;96825.34;6300341;22;20038;-49
2022/03/18 09:22:35;;;;;;;44.13;34.83;;;;;;;8.52;83.07;96826.03;6300498;22;20003;-51
2022/03/18 09:25:01;;;;;;;49.67;36.42;;;;;;;8.43;83.28;96826.59;6300320;22;20015;-52
2022/03/18 09:27:26;;;;;;;51.20;35.55;;;;;;;8.50;83.46;96830.53;6300208;22;20006;-52
2022/03/18 09:29:52;;;;;;;45.88;35.13;;;;;;;8.68;82.72;96825.00;6300493;22;20003;-51
2022/03/18 09:32:17;;;;;;;46.92;36.58;;;;;;;8.59;82.45;96829.06;6300043;22;20011;-52
2022/03/18 09:34:42;;;;;;;48.50;37.03;;;;;;;8.54;82.61;96828.53;6300386;22;20416;-53
2022/03/18 09:37:08;;;;;;;56.70;37.75;;;;;;;8.65;82.72;96828.69;6300319;22;20000;-50
2022/03/18 09:39:33;;;;;;;44.53;33.40;;;;;;;8.70;81.79;96825.75;6300225;22;20004;-49
2022/03/18 09:41:59;;;;;;;45.20;34.22;;;;;;;8.70;81.71;96825.75;6300256;22;20003;-52
2022/03/18 09:44:32;;;;;;;47.88;34.25;;;;;;;8.73;81.93;96830.78;6299539;22;19995;-52
2022/03/18 09:46:59;;;;;;;44.20;35.88;;;;;;;8.67;81.98;96831.19;6300082;22;20431;-50
2022/03/18 09:49:25;;;;;;;47.30;35.75;;;;;;;8.72;81.45;96834.34;6273038;22;20343;-53
2022/03/18 09:51:50;;;;;;;39.40;32.03;;;;;;;8.75;81.46;96828.91;6300231;22;20007;-51
2022/03/18 09:54:16;;;;;;;50.53;36.33;;;;;;;8.74;81.84;96832.50;6300121;22;20082;-51
2022/03/18 09:56:44;;;;;;;43.13;34.58;;;;;;;8.80;81.27;96833.84;6300239;22;20000;-50
2022/03/18 09:59:10;;;;;;;43.00;34.30;;;;;;;8.76;81.43;96838.47;6300029;22;20004;-52
2022/03/18 10:01:36;;;;;;;45.03;33.70;;;;;;;8.75;81.34;96834.16;6300145;22;20071;-49
2022/03/18 10:04:07;;;;;;;45.83;34.17;;;;;;;8.88;80.86;96839.44;6300111;22;20068;-50
2022/03/18 10:06:34;;;;;;;44.42;34.78;;;;;;;8.88;81.37;96837.63;6300040;22;19999;-50
2022/03/18 10:09:00;;;;;;;46.08;35.03;;;;;;;8.92;80.74;96840.91;6300231;22;20003;-52
2022/03/18 10:11:28;;;;;;;49.58;33.78;;;;;;;8.91;80.88;96847.09;6299837;22;20018;-54
2022/03/18 10:14:04;;;;;;;43.72;34.55;;;;;;;8.89;81.25;96849.00;6300210;22;20330;-52
2022/03/18 10:16:40;;;;;;;49.20;33.47;;;;;;;8.87;81.59;96845.63;6299997;22;20023;-54
2022/03/18 10:19:06;;;;;;;;;;;;;;;8.90;81.01;96845.44;6300362;22;20007;-53
2022/03/18 10:21:33;;;;;;;44.63;33.22;;;;;;;9.05;80.84;96848.78;6299917;22;19906;-54
2022/03/18 10:24:09;;;;;;;53.28;34.83;;;;;;;8.96;81.15;96849.44;6300034;22;20549;-53
2022/03/18 10:26:39;;;;;;;44.33;33.42;;;;;;;9.02;81.26;96859.53;6299992;22;19996;-53
2022/03/18 10:29:05;;;;;;;45.47;34.55;;;;;;;9.05;80.86;96858.44;6299825;22;19999;-54
2022/03/18 10:31:31;;;;;;;46.53;35.83;;;;;;;8.98;81.20;96852.78;6299604;22;20008;-54
2022/03/18 10:37:04;;;;;;;50.72;37.45;;;;;;;8.97;82.16;96851.94;6299945;22;20030;-52
2022/03/18 10:39:38;;;;;;;54.65;35.15;;;;;;;9.00;81.85;96858.78;6299636;22;19999;-54
2022/03/18 10:42:18;;;;;;;42.60;35.47;;;;;;;9.12;80.74;96850.06;6299749;22;20447;-54
2022/03/18 10:44:51;;;;;;;46.30;36.20;;;;;;;9.20;80.94;96861.84;6299984;22;19999;-54
2022/03/18 10:47:36;;;;;;;51.42;35.78;;;;;;;9.20;81.19;96852.16;6300995;22;19995;-54
2022/03/18 10:50:11;;;;;;;44.08;35.13;;;;;;;9.34;80.65;96845.13;6301087;22;20003;-54
2022/03/18 10:52:45;;;;;;;42.63;35.92;;;;;;;9.28;80.46;96842.00;6300952;22;20003;-55
2022/03/18 10:55:31;;;;;;;42.92;34.35;;;;;;;9.33;80.21;96841.66;6301059;22;20064;-54
2022/03/18 10:58:02;;;;;;;50.28;35.45;;;;;;;9.36;79.72;96840.59;6301342;22;20014;-55
2022/03/18 11:00:30;;;;;;;45.22;34.63;;;;;;;9.41;79.73;96841.97;6301039;22;20339;-54
2022/03/18 11:02:58;;;;;;;46.70;35.00;;;;;;;9.58;78.35;96837.31;6301029;22;20083;-51
2022/03/18 11:05:25;;;;;;;48.35;35.55;;;;;;;9.53;79.04;96836.78;6300895;22;20010;-52
2022/03/18 11:07:52;;;;;;;43.33;33.65;;;;;;;9.59;78.67;96837.22;6301136;22;20086;-53
2022/03/18 11:13:06;;;;;;;51.10;35.60;;;;;;;9.49;79.12;96843.22;6300842;22;20103;-53
2022/03/18 11:15:34;;;;;;;44.10;34.33;;;;;;;9.49;79.40;96851.94;6301003;22;20509;-54
2022/03/18 11:18:02;;;;;;;51.70;36.45;;;;;;;9.51;79.48;96846.59;6301020;22;20013;-53
2022/03/18 11:20:27;;;;;;;43.35;34.92;;;;;;;9.52;79.62;96846.50;6301127;22;20004;-54
2022/03/18 11:22:56;;;;;;;50.83;36.40;;;;;;;9.49;78.78;96851.94;6301026;22;20007;-48
2022/03/18 11:25:23;;;;;;;47.78;36.10;;;;;;;9.42;78.56;96843.66;6300871;22;20011;-52
2022/03/18 11:27:51;;;;;;;55.03;36.35;;;;;;;9.37;78.72;96848.38;6301101;22;20010;-50
2022/03/18 11:30:22;;;;;;;49.95;38.15;;;;;;;9.29;78.70;96854.19;6301296;22;20010;-50
2022/03/18 11:33:10;;;;;;;46.33;33.67;;;;;;;9.22;79.40;96857.31;6300814;22;20014;-54
2022/03/18 11:35:47;;;;;;;49.67;37.13;;;;;;;9.28;79.13;96864.78;6300653;22;19999;-50
2022/03/18 11:38:14;;;;;;;50.85;34.35;;;;;;;9.28;78.60;96859.53;6300873;22;20004;-52